BTK3578 WALS-WAPP
Flight info
| Callsign | BTK3578 |
|---|---|
| Flight time | N/A |
| Altitude | 37000 |
| Route | AGUSI L504 MWB W55 BELBA |
| Aircraft | A20N/M-SDE2E3FGHIRWXY/LB1 |
Departure
| Time | 2026-04-22 11:42 |
|---|---|
| Airport | Aji Pangeran Tumenggung Pranoto International Airport (WALS) |
Arrival
| Time | N/A |
|---|---|
| Airport | Pattimura International Airport (WAPP) |
| Time | Latitude | Longitude | Altitude | Speed | Heading |
|---|---|---|---|---|---|
| 2026-04-22 11:42 | -0.39511 | 117.19493 | 2589 ft | 195 kts | 335° |
| 2026-04-22 11:42 | -0.38145 | 117.19321 | 2898 ft | 212 kts | 14° |
| 2026-04-22 11:43 | -0.36861 | 117.20152 | 3196 ft | 235 kts | 51° |
| 2026-04-22 11:43 | -0.36223 | 117.21062 | 3515 ft | 245 kts | 54° |
| 2026-04-22 11:43 | -0.35002 | 117.22292 | 3908 ft | 262 kts | 26° |
| 2026-04-22 11:43 | -0.33210 | 117.22642 | 4459 ft | 270 kts | 350° |
| 2026-04-22 11:44 | -0.30876 | 117.21792 | 5579 ft | 271 kts | 336° |
| 2026-04-22 11:44 | -0.29139 | 117.21088 | 6339 ft | 275 kts | 340° |
| 2026-04-22 11:44 | -0.27935 | 117.20678 | 6857 ft | 277 kts | 342° |
| 2026-04-22 11:44 | -0.26101 | 117.20152 | 7637 ft | 280 kts | 345° |
| 2026-04-22 11:45 | -0.23555 | 117.19544 | 8675 ft | 284 kts | 347° |
| 2026-04-22 11:45 | -0.22276 | 117.19270 | 9177 ft | 286 kts | 347° |
| 2026-04-22 11:45 | -0.19677 | 117.18745 | 10164 ft | 291 kts | 347° |
| 2026-04-22 11:45 | -0.17680 | 117.18357 | 10696 ft | 302 kts | 348° |
| 2026-04-22 11:46 | -0.15550 | 117.17949 | 11154 ft | 315 kts | 348° |
| 2026-04-22 11:46 | -0.14133 | 117.17680 | 11605 ft | 318 kts | 348° |
| 2026-04-22 11:46 | -0.11236 | 117.17135 | 12574 ft | 321 kts | 348° |
| 2026-04-22 11:46 | -0.09027 | 117.16721 | 13290 ft | 324 kts | 348° |
| 2026-04-22 11:47 | -0.06817 | 117.16308 | 14002 ft | 327 kts | 348° |
| 2026-04-22 11:47 | -0.04606 | 117.15896 | 14693 ft | 329 kts | 348° |